Time;durP1;ratioP1;P1;durP2;ratioP2;P2;SDS_P1;SDS_P2;PMS_P1;PMS_P2;Temp;Humidity;BMP_temperature;BMP_pressure;BME280_temperature;BME280_humidity;BME280_pressure;Samples;Min_cycle;Max_cycle;Signal;HPM_P1;HPM_P2
2021/04/30 00:00:44;;;;;;;13.13;8.35;;;;;;;11.69;66.73;96635.53;1816129;79;21281;-84
2021/04/30 00:03:15;;;;;;;11.22;7.00;;;;;;;11.67;67.01;96629.08;1782710;79;21109;-85
2021/04/30 00:05:43;;;;;;;11.00;6.67;;;;;;;11.65;67.04;96634.13;1789587;79;21240;-83
2021/04/30 00:08:12;;;;;;;10.90;6.00;;;;;;;11.65;66.95;96623.58;1784395;79;21297;-85
2021/04/30 00:10:42;;;;;;;10.50;6.28;;;;;;;11.71;67.14;96627.80;1817815;79;21270;-85
2021/04/30 00:13:12;;;;;;;10.90;6.40;;;;;;;11.75;67.17;96627.03;1757191;79;21322;-86
2021/04/30 00:15:40;;;;;;;9.55;6.08;;;;;;;11.81;67.39;96620.35;1820687;77;21259;-84
2021/04/30 00:18:07;;;;;;;11.68;5.85;;;;;;;11.87;67.42;96623.27;1810935;77;21315;-85
2021/04/30 00:20:40;;;;;;;11.22;5.60;;;;;;;11.93;67.55;96635.53;1784708;79;21247;-82
2021/04/30 00:23:12;;;;;;;13.10;5.08;;;;;;;11.99;68.01;96629.73;1784499;79;21143;-84
2021/04/30 00:25:41;;;;;;;6.85;4.60;;;;;;;12.05;67.98;96633.11;1812355;77;21143;-81
2021/04/30 00:28:08;;;;;;;8.48;5.03;;;;;;;12.12;67.98;96636.02;1816592;77;21227;-83
2021/04/30 00:30:38;;;;;;;12.10;6.12;;;;;;;12.20;68.04;96630.02;1813195;77;21323;-85
2021/04/30 00:33:07;;;;;;;7.70;5.70;;;;;;;12.28;68.08;96626.16;1784250;77;21124;-83
2021/04/30 00:35:35;;;;;;;11.88;6.40;;;;;;;12.38;68.00;96632.71;1787083;78;21169;-85
2021/04/30 00:38:03;;;;;;;8.90;6.00;;;;;;;12.47;67.87;96634.01;1817592;77;21327;-85
2021/04/30 00:40:32;;;;;;;10.78;6.17;;;;;;;12.48;67.59;96629.03;1818009;77;21255;-85
2021/04/30 00:43:19;;;;;;;10.90;5.42;;;;;;;12.50;67.52;96628.41;1780360;79;21149;-84
2021/04/30 00:45:47;;;;;;;10.95;4.87;;;;;;;12.53;67.39;96629.09;1788704;77;21129;-84
2021/04/30 00:48:16;;;;;;;6.20;4.47;;;;;;;12.54;67.24;96628.94;1819049;77;21358;-86
2021/04/30 00:50:45;;;;;;;8.43;4.33;;;;;;;12.52;67.00;96636.69;1817462;79;21089;-85
2021/04/30 00:53:17;;;;;;;8.18;4.50;;;;;;;12.46;66.91;96624.87;1759641;79;21281;-84
2021/04/30 00:55:56;;;;;;;7.65;5.15;;;;;;;12.40;67.33;96634.73;1825017;77;23036;-85
2021/04/30 00:58:26;;;;;;;9.25;6.35;;;;;;;12.28;66.95;96630.13;1799936;77;21268;-82
2021/04/30 01:00:55;;;;;;;9.58;6.35;;;;;;;12.18;66.98;96634.11;1859605;77;21241;-83
2021/04/30 01:03:24;;;;;;;11.97;6.85;;;;;;;12.11;66.90;96636.48;1794524;80;21134;-84
2021/04/30 01:05:51;;;;;;;10.25;6.95;;;;;;;12.01;67.23;96624.64;1762008;81;21124;-82
2021/04/30 01:08:19;;;;;;;11.90;6.58;;;;;;;11.96;67.21;96633.94;1771236;81;21297;-85
2021/04/30 01:10:47;;;;;;;12.85;7.10;;;;;;;11.92;67.37;96636.54;1749760;81;21360;-83
2021/04/30 01:13:15;;;;;;;10.82;7.35;;;;;;;11.88;67.41;96636.81;1719322;81;21128;-83
2021/04/30 01:15:44;;;;;;;13.10;7.53;;;;;;;11.87;67.51;96636.47;1698360;82;21139;-84
2021/04/30 01:18:12;;;;;;;11.75;7.53;;;;;;;11.86;67.73;96636.62;1698818;84;21148;-84
2021/04/30 01:20:50;;;;;;;12.25;8.40;;;;;;;11.81;67.68;96641.00;1714549;83;21093;-85
2021/04/30 01:23:18;;;;;;;13.20;7.12;;;;;;;11.77;67.64;96634.83;1714453;83;21116;-82
2021/04/30 01:25:46;;;;;;;12.53;7.45;;;;;;;11.71;67.62;96630.95;1714223;83;21172;-84
2021/04/30 01:28:16;;;;;;;11.00;7.50;;;;;;;11.67;67.44;96628.23;1755627;81;21325;-84
2021/04/30 01:30:44;;;;;;;12.93;7.83;;;;;;;11.63;67.54;96629.50;1714226;83;21174;-83
2021/04/30 01:33:20;;;;;;;11.48;7.03;;;;;;;11.57;67.56;96636.18;1714227;82;21148;-83
2021/04/30 01:35:47;;;;;;;13.78;8.20;;;;;;;11.51;67.75;96629.66;1704871;82;21250;-83
2021/04/30 01:38:16;;;;;;;14.95;8.73;;;;;;;11.48;67.75;96633.06;1730306;82;21585;-83
2021/04/30 01:40:45;;;;;;;11.75;7.90;;;;;;;11.46;68.08;96633.68;1734927;82;21250;-84
2021/04/30 01:43:19;;;;;;;11.55;7.25;;;;;;;11.46;68.28;96635.00;1743968;82;21163;-83
2021/04/30 01:45:56;;;;;;;11.03;7.20;;;;;;;11.45;68.56;96632.02;1743942;82;21277;-83
2021/04/30 01:48:35;;;;;;;12.18;7.30;;;;;;;11.45;68.63;96632.02;1743278;82;21132;-82
2021/04/30 01:51:09;;;;;;;11.28;7.00;;;;;;;11.48;68.82;96627.28;1688254;84;21267;-84
2021/04/30 01:53:39;;;;;;;12.05;6.55;;;;;;;11.51;68.91;96626.16;1714595;84;21207;-83
2021/04/30 01:56:12;;;;;;;15.30;7.45;;;;;;;11.57;68.96;96619.02;1685108;84;21586;-85
2021/04/30 01:58:42;;;;;;;11.48;7.20;;;;;;;11.66;68.98;96613.36;1685074;85;21157;-84
2021/04/30 02:01:12;;;;;;;7.55;5.75;;;;;;;11.78;69.02;96614.06;1710032;84;21144;-86
2021/04/30 02:03:40;;;;;;;10.15;6.35;;;;;;;11.87;69.02;96611.88;1711611;83;21131;-84
2021/04/30 02:06:08;;;;;;;13.48;5.80;;;;;;;11.95;68.98;96611.14;1706223;83;21176;-82
2021/04/30 02:08:37;;;;;;;9.58;5.42;;;;;;;12.04;68.77;96611.63;1703068;84;21157;-87
2021/04/30 02:11:05;;;;;;;11.45;5.60;;;;;;;12.09;68.83;96610.73;1704144;84;21143;-87
2021/04/30 02:13:38;;;;;;;8.30;5.25;;;;;;;12.10;68.61;96602.30;1704135;84;21160;-86
2021/04/30 02:16:07;;;;;;;9.25;5.78;;;;;;;12.15;68.51;96600.89;1704241;84;21160;-85
2021/04/30 02:18:40;;;;;;;7.75;5.58;;;;;;;12.12;68.35;96594.56;1732513;83;21160;-85
2021/04/30 02:21:07;;;;;;;12.50;5.65;;;;;;;12.12;68.19;96596.39;1704159;84;21175;-85
2021/04/30 02:23:35;;;;;;;10.35;6.22;;;;;;;12.07;68.13;96595.97;1704334;84;21140;-85
2021/04/30 02:26:02;;;;;;;8.50;5.70;;;;;;;12.07;68.11;96604.75;1704162;84;21160;-84
2021/04/30 02:28:30;;;;;;;10.23;6.62;;;;;;;12.07;67.97;96607.39;1704200;84;21175;-84
2021/04/30 02:30:58;;;;;;;8.18;6.33;;;;;;;12.03;67.83;96602.89;1704260;84;21200;-83
2021/04/30 02:33:27;;;;;;;9.48;6.33;;;;;;;12.00;67.80;96607.63;1719327;83;21172;-85
2021/04/30 02:35:57;;;;;;;12.85;6.95;;;;;;;11.93;67.63;96611.77;1710199;84;21175;-84
2021/04/30 02:38:28;;;;;;;10.08;6.83;;;;;;;11.87;67.72;96607.42;1738206;81;21697;-83
2021/04/30 02:40:56;;;;;;;9.78;6.60;;;;;;;11.79;67.77;96608.63;1705951;84;21308;-84
2021/04/30 02:43:23;;;;;;;9.90;6.70;;;;;;;11.69;67.92;96607.31;1710802;84;21288;-86
2021/04/30 02:45:54;;;;;;;12.90;6.78;;;;;;;11.64;68.02;96605.59;1710463;84;21298;-83
2021/04/30 02:48:37;;;;;;;10.03;6.50;;;;;;;11.58;68.08;96605.32;1710511;84;21118;-83
2021/04/30 02:51:08;;;;;;;14.20;6.78;;;;;;;11.49;68.03;96612.30;1710620;84;21192;-83
2021/04/30 02:53:37;;;;;;;8.93;6.20;;;;;;;11.40;68.33;96612.17;1710605;84;21283;-83
2021/04/30 02:56:09;;;;;;;14.00;7.85;;;;;;;11.34;68.63;96618.48;1733260;82;21286;-84
2021/04/30 02:58:38;;;;;;;11.48;6.70;;;;;;;11.29;68.63;96622.02;1790653;80;21354;-83
2021/04/30 03:01:05;;;;;;;7.92;5.65;;;;;;;11.23;68.98;96628.20;1790783;80;21248;-84
2021/04/30 03:03:46;;;;;;;8.85;6.20;;;;;;;11.21;68.94;96628.83;1790604;80;21169;-83
2021/04/30 03:06:16;;;;;;;8.98;5.72;;;;;;;11.20;69.13;96632.43;1790800;80;21232;-85
2021/04/30 03:09:00;;;;;;;9.43;5.87;;;;;;;11.25;69.06;96638.61;1831038;77;25941;-85
2021/04/30 03:11:28;;;;;;;7.83;5.53;;;;;;;11.22;69.24;96650.78;1822154;78;21234;-83
2021/04/30 03:14:03;;;;;;;9.28;5.72;;;;;;;11.26;69.30;96656.11;1833750;78;21129;-83
2021/04/30 03:16:44;;;;;;;10.88;6.05;;;;;;;11.29;69.44;96651.89;1833615;76;21131;-85
2021/04/30 03:19:14;;;;;;;11.88;6.08;;;;;;;11.36;69.74;96650.85;1833735;78;21139;-86
2021/04/30 03:21:43;;;;;;;10.72;4.95;;;;;;;11.44;69.93;96656.27;1833536;78;21096;-85
2021/04/30 03:24:12;;;;;;;15.20;5.45;;;;;;;11.53;69.90;96652.78;1832126;78;21123;-86
2021/04/30 03:26:42;;;;;;;13.55;5.33;;;;;;;11.63;69.89;96658.05;1832940;78;21119;-84
2021/04/30 03:29:10;;;;;;;6.67;4.47;;;;;;;11.70;69.87;96670.20;1833418;78;21221;-86
2021/04/30 03:31:37;;;;;;;6.00;4.03;;;;;;;11.76;69.91;96676.23;1833714;78;21131;-83
2021/04/30 03:34:07;;;;;;;9.98;4.20;;;;;;;11.81;69.82;96683.26;1833639;78;21096;-83
2021/04/30 03:36:37;;;;;;;8.85;4.58;;;;;;;11.85;70.16;96678.02;1832525;78;21164;-84
2021/04/30 03:39:06;;;;;;;7.35;3.77;;;;;;;11.92;70.06;96686.72;1805977;78;21144;-86
2021/04/30 03:41:36;;;;;;;11.00;3.55;;;;;;;11.98;70.10;96698.88;1832759;78;21249;-82
2021/04/30 03:44:04;;;;;;;6.78;4.35;;;;;;;12.05;70.60;96707.08;1806146;78;21281;-82
2021/04/30 03:46:32;;;;;;;5.78;4.00;;;;;;;12.12;70.87;96712.12;1832957;78;21214;-82
2021/04/30 03:48:59;;;;;;;9.45;3.83;;;;;;;12.16;71.39;96706.92;1832513;78;21092;-83
2021/04/30 03:51:28;;;;;;;7.47;4.28;;;;;;;12.23;72.32;96703.22;1832301;78;21115;-83
2021/04/30 03:53:55;;;;;;;7.25;4.00;;;;;;;12.18;72.12;96702.33;1831890;78;21270;-83
2021/04/30 03:56:22;;;;;;;8.53;4.28;;;;;;;12.23;72.49;96713.80;1810648;78;21156;-87
2021/04/30 03:58:50;;;;;;;8.03;4.95;;;;;;;12.24;72.91;96710.17;1833212;78;21136;-87
2021/04/30 04:01:17;;;;;;;8.28;4.22;;;;;;;12.24;73.24;96701.40;1832669;78;21162;-85
2021/04/30 04:03:45;;;;;;;7.62;4.10;;;;;;;12.27;73.66;96689.23;1833370;77;21159;-84
2021/04/30 04:06:12;;;;;;;6.17;4.00;;;;;;;12.19;73.71;96671.45;1833197;78;21138;-89
2021/04/30 04:08:40;;;;;;;10.20;4.95;;;;;;;12.00;73.20;96664.42;1828957;78;21254;-86
2021/04/30 04:11:09;;;;;;;8.90;5.62;;;;;;;11.81;74.26;96674.48;1825731;79;21100;-87
2021/04/30 04:13:37;;;;;;;9.10;4.70;;;;;;;11.82;74.90;96682.28;1821007;78;21111;-86
2021/04/30 04:16:05;;;;;;;8.25;4.70;;;;;;;11.79;74.80;96673.31;1739999;80;21209;-84
2021/04/30 04:18:34;;;;;;;9.05;4.30;;;;;;;11.72;74.49;96678.32;1760455;80;21262;-85
2021/04/30 04:21:03;;;;;;;6.78;4.47;;;;;;;11.76;75.11;96681.51;1760714;80;21095;-85
2021/04/30 04:23:35;;;;;;;10.63;5.30;;;;;;;11.77;75.21;96694.23;1771009;80;21242;-86
2021/04/30 04:26:06;;;;;;;13.93;4.85;;;;;;;11.74;75.18;96704.57;1764317;81;21282;-88
2021/04/30 04:28:34;;;;;;;7.67;5.05;;;;;;;11.75;75.58;96712.84;1732209;82;21281;-86
2021/04/30 04:31:04;;;;;;;8.20;5.00;;;;;;;11.82;75.87;96714.44;1758005;82;21141;-86
2021/04/30 04:33:35;;;;;;;9.15;5.70;;;;;;;11.96;76.17;96709.22;1731003;82;21257;-87
2021/04/30 04:36:13;;;;;;;10.72;5.97;;;;;;;12.09;76.12;96715.08;1732243;82;21287;-86
2021/04/30 04:38:40;;;;;;;7.95;5.08;;;;;;;12.18;76.04;96712.90;1756108;82;21278;-85
2021/04/30 04:41:09;;;;;;;11.75;4.97;;;;;;;12.27;76.23;96720.94;1743905;82;21261;-84
2021/04/30 04:43:37;;;;;;;9.60;4.40;;;;;;;12.41;76.42;96728.40;1722128;82;21160;-86
2021/04/30 04:46:04;;;;;;;8.60;4.60;;;;;;;12.49;76.26;96721.91;1733444;81;21143;-86
2021/04/30 04:48:34;;;;;;;7.58;4.15;;;;;;;12.59;76.46;96728.49;1685863;83;21178;-86
2021/04/30 04:51:21;;;;;;;9.75;4.67;;;;;;;12.71;76.53;96723.84;1736853;83;21139;-86
2021/04/30 04:53:48;;;;;;;12.63;4.85;;;;;;;12.74;76.34;96736.78;1714032;83;21103;-86
2021/04/30 04:56:18;;;;;;;7.53;5.20;;;;;;;12.78;76.28;96747.41;1776021;81;21183;-86
2021/04/30 04:58:49;;;;;;;10.70;4.87;;;;;;;12.87;76.31;96744.86;1777933;81;21126;-86
2021/04/30 05:01:21;;;;;;;7.45;5.22;;;;;;;12.97;76.36;96753.58;1746273;81;21258;-88
2021/04/30 05:04:05;;;;;;;10.75;5.10;;;;;;;13.08;76.33;96756.04;1767902;81;21278;-87
2021/04/30 05:06:32;;;;;;;6.78;4.90;;;;;;;13.17;76.23;96758.78;1768089;81;21550;-85
2021/04/30 05:09:04;;;;;;;12.40;6.42;;;;;;;13.28;76.54;96756.75;1754274;81;21143;-87
2021/04/30 05:11:31;;;;;;;9.38;5.17;;;;;;;13.40;76.65;96761.87;1748678;80;21557;-87
2021/04/30 05:14:04;;;;;;;9.08;4.97;;;;;;;13.53;76.75;96754.42;1767253;81;21277;-87
2021/04/30 05:16:33;;;;;;;6.67;4.65;;;;;;;13.61;76.27;96756.80;1767301;81;21324;-88
2021/04/30 05:19:00;;;;;;;9.18;4.78;;;;;;;13.65;76.05;96748.40;1766783;81;21179;-88
2021/04/30 05:21:28;;;;;;;9.45;3.87;;;;;;;13.71;76.53;96757.56;1760988;81;21571;-87
2021/04/30 05:23:58;;;;;;;12.55;5.00;;;;;;;13.68;77.05;96766.64;1752505;81;21557;-82
2021/04/30 05:26:30;;;;;;;12.30;4.92;;;;;;;13.71;76.39;96769.48;1742028;82;21137;-87
2021/04/30 05:28:58;;;;;;;9.95;4.70;;;;;;;13.90;76.80;96772.45;1754029;82;21199;-87
2021/04/30 05:31:27;;;;;;;7.55;4.50;;;;;;;14.08;76.55;96767.63;1816958;79;21579;-83
2021/04/30 05:33:54;;;;;;;9.70;4.58;;;;;;;14.27;76.77;96763.47;1819939;78;21123;-84
2021/04/30 05:36:21;;;;;;;7.53;4.53;;;;;;;14.46;76.88;96758.95;1817243;78;21564;-87
2021/04/30 05:38:49;;;;;;;10.72;4.97;;;;;;;14.53;75.73;96775.42;1788263;80;21537;-88
2021/04/30 05:41:17;;;;;;;8.63;3.90;;;;;;;14.62;75.85;96780.27;1817435;79;21155;-86
2021/04/30 05:43:44;;;;;;;9.48;4.85;;;;;;;14.76;76.33;96787.36;1820393;78;21128;-87
2021/04/30 05:46:12;;;;;;;7.92;5.40;;;;;;;14.72;74.82;96786.84;1795680;79;21135;-86
2021/04/30 05:48:39;;;;;;;7.92;4.87;;;;;;;14.83;74.75;96788.38;1788169;80;21735;-88
2021/04/30 05:51:07;;;;;;;6.70;4.42;;;;;;;14.99;74.70;96791.11;1788384;80;21152;-85
2021/04/30 05:53:35;;;;;;;6.65;4.00;;;;;;;15.12;74.67;96798.66;1780297;79;21297;-84
2021/04/30 05:56:05;;;;;;;9.78;4.55;;;;;;;15.33;74.13;96805.88;1808528;79;21132;-86
2021/04/30 05:58:33;;;;;;;7.80;4.80;;;;;;;15.54;74.00;96805.44;1819938;78;21163;-84
2021/04/30 06:01:01;;;;;;;8.08;4.40;;;;;;;15.70;73.52;96799.34;1807547;79;21139;-83
2021/04/30 06:03:28;;;;;;;6.40;4.22;;;;;;;15.81;72.99;96798.19;1773355;79;21120;-86
2021/04/30 06:05:55;;;;;;;7.87;4.30;;;;;;;15.92;72.76;96805.88;1733005;82;21644;-84
2021/04/30 06:08:22;;;;;;;10.45;4.33;;;;;;;16.03;72.39;96804.23;1769278;80;21155;-84
2021/04/30 06:10:49;;;;;;;8.98;5.22;;;;;;;16.12;72.41;96802.91;1801092;79;21577;-85
2021/04/30 06:13:17;;;;;;;6.80;3.47;;;;;;;16.20;71.63;96797.08;1773931;78;21096;-86
2021/04/30 06:15:44;;;;;;;6.58;4.33;;;;;;;16.12;70.07;96789.11;1769042;81;21298;-85
2021/04/30 06:18:11;;;;;;;8.60;5.00;;;;;;;15.82;69.43;96786.56;1769053;81;21258;-86
2021/04/30 06:20:38;;;;;;;6.35;4.85;;;;;;;15.73;69.91;96792.37;1732473;82;21143;-86
2021/04/30 06:23:06;;;;;;;7.17;4.47;;;;;;;15.74;68.97;96796.67;1769253;81;21160;-86
2021/04/30 06:25:33;;;;;;;8.48;4.90;;;;;;;15.70;70.21;96799.34;1769305;81;21545;-85
2021/04/30 06:28:00;;;;;;;6.70;4.10;;;;;;;15.61;69.54;96803.31;1732537;83;21179;-84
2021/04/30 06:30:27;;;;;;;6.62;4.28;;;;;;;15.53;69.62;96803.29;1768261;81;21278;-85
2021/04/30 06:32:55;;;;;;;9.03;4.15;;;;;;;15.46;69.12;96809.73;1728940;82;21214;-84
2021/04/30 06:35:22;;;;;;;5.92;4.15;;;;;;;15.41;70.02;96804.57;1738415;82;21144;-85
2021/04/30 06:37:50;;;;;;;8.63;5.05;;;;;;;15.44;70.51;96811.72;1739196;82;21120;-84
2021/04/30 06:40:17;;;;;;;7.28;4.83;;;;;;;15.45;70.02;96808.58;1756267;81;21553;-85
2021/04/30 06:42:44;;;;;;;7.67;4.87;;;;;;;15.35;70.35;96804.71;1744697;81;21124;-85
2021/04/30 06:45:12;;;;;;;6.55;4.70;;;;;;;15.16;70.64;96811.12;1753168;81;21134;-84
2021/04/30 06:47:39;;;;;;;9.80;5.05;;;;;;;14.97;70.62;96814.83;1779049;81;21587;-81
2021/04/30 06:50:08;;;;;;;8.88;4.50;;;;;;;14.79;71.15;96811.75;1768114;81;21143;-83
2021/04/30 06:52:38;;;;;;;16.77;5.37;;;;;;;14.60;71.73;96815.90;1766338;81;21173;-84
2021/04/30 06:55:07;;;;;;;8.98;5.28;;;;;;;14.48;71.76;96823.28;1767721;81;21303;-85
2021/04/30 06:57:36;;;;;;;7.28;4.55;;;;;;;14.44;72.29;96819.27;1777139;81;21139;-87
2021/04/30 07:00:05;;;;;;;8.73;5.58;;;;;;;14.54;72.62;96821.33;1778930;81;21307;-87
2021/04/30 07:02:33;;;;;;;9.43;5.40;;;;;;;14.61;72.59;96823.72;1777299;81;21128;-87
2021/04/30 07:05:01;;;;;;;9.28;4.72;;;;;;;14.79;72.72;96832.97;1779226;80;21282;-84
2021/04/30 07:07:31;;;;;;;9.50;5.05;;;;;;;14.94;72.80;96837.21;1779258;81;21178;-80
2021/04/30 07:09:58;;;;;;;7.78;4.53;;;;;;;15.04;72.51;96842.91;1777368;81;21181;-80
2021/04/30 07:12:26;;;;;;;6.60;4.60;;;;;;;15.13;72.42;96845.94;1777375;81;21583;-85
2021/04/30 07:14:53;;;;;;;8.93;4.55;;;;;;;15.09;72.15;96848.08;1775426;80;21255;-84
2021/04/30 07:17:21;;;;;;;7.42;5.62;;;;;;;14.95;71.84;96853.47;1732337;82;21152;-87
2021/04/30 07:19:48;;;;;;;16.05;6.30;;;;;;;14.83;71.94;96860.02;1753127;81;21165;-84
2021/04/30 07:22:15;;;;;;;9.40;6.55;;;;;;;14.65;72.02;96866.17;1760769;81;21533;-82
2021/04/30 07:24:44;;;;;;;9.55;6.85;;;;;;;14.58;72.36;96862.48;1760421;81;21177;-86
2021/04/30 07:27:12;;;;;;;12.75;7.10;;;;;;;14.55;72.54;96847.38;1760526;81;21146;-87
2021/04/30 07:29:39;;;;;;;10.53;6.10;;;;;;;14.53;72.89;96836.42;1760151;81;21126;-85
2021/04/30 07:32:06;;;;;;;9.55;5.92;;;;;;;14.64;73.33;96839.81;1758005;81;21521;-84
2021/04/30 07:34:36;;;;;;;8.50;5.40;;;;;;;14.75;72.96;96848.03;1746318;81;21225;-83
2021/04/30 07:37:05;;;;;;;10.20;6.80;;;;;;;14.81;72.84;96841.62;1730128;83;21124;-84
2021/04/30 07:39:34;;;;;;;10.03;6.17;;;;;;;14.87;72.72;96836.18;1726337;82;21578;-86
2021/04/30 07:42:03;;;;;;;9.58;6.20;;;;;;;14.99;73.11;96837.56;1724641;82;21581;-84
2021/04/30 07:44:34;;;;;;;11.28;6.70;;;;;;;15.10;72.56;96847.09;1724214;83;21171;-87
2021/04/30 07:47:03;;;;;;;8.85;5.25;;;;;;;15.31;72.62;96845.87;1724714;83;21159;-85
2021/04/30 07:49:31;;;;;;;13.18;6.05;;;;;;;15.42;71.75;96844.74;1724853;82;21162;-84
2021/04/30 07:51:59;;;;;;;11.63;7.72;;;;;;;15.17;71.34;96857.06;1739554;82;21132;-86
2021/04/30 07:54:28;;;;;;;10.55;5.33;;;;;;;15.06;72.01;96851.55;1743002;82;21243;-89
2021/04/30 07:56:57;;;;;;;8.25;5.17;;;;;;;15.02;71.92;96855.48;1743018;82;21283;-86
2021/04/30 07:59:24;;;;;;;7.58;5.72;;;;;;;14.88;72.77;96841.83;1742984;82;21184;-83
2021/04/30 08:01:51;;;;;;;9.70;6.47;;;;;;;14.85;72.58;96850.59;1743077;82;21165;-88
2021/04/30 08:04:19;;;;;;;13.08;7.37;;;;;;;14.88;72.77;96846.28;1743162;82;21150;-86
2021/04/30 08:06:46;;;;;;;15.28;9.43;;;;;;;14.94;72.83;96849.16;1743723;82;21200;-85
2021/04/30 08:09:13;;;;;;;11.55;8.08;;;;;;;14.97;73.65;96852.83;1738310;82;21171;-84
2021/04/30 08:11:41;;;;;;;14.43;8.05;;;;;;;15.11;72.38;96857.20;1732452;82;21169;-87
2021/04/30 08:14:09;;;;;;;11.93;7.28;;;;;;;15.16;72.29;96857.58;1732320;83;21181;-87
2021/04/30 08:16:42;;;;;;;15.08;8.23;;;;;;;15.28;72.28;96847.00;1732696;82;21198;-87
2021/04/30 08:19:09;;;;;;;5.95;4.92;;;;;;;15.46;72.20;96846.06;1717705;83;21135;-90
2021/04/30 08:21:37;;;;;;;13.98;8.63;;;;;;;15.84;71.61;96851.87;1809897;79;21266;-85
2021/04/30 08:24:05;;;;;;;9.23;6.87;;;;;;;15.95;70.53;96847.24;1746674;81;21138;-84
2021/04/30 08:26:33;;;;;;;12.70;9.60;;;;;;;16.08;70.47;96837.80;1769639;79;21285;-86
2021/04/30 08:29:01;;;;;;;10.70;8.55;;;;;;;16.26;69.63;96845.30;1807360;79;21253;-84
2021/04/30 08:31:29;;;;;;;12.63;10.03;;;;;;;16.35;69.09;96849.11;1801821;79;21675;-88
2021/04/30 08:33:59;;;;;;;15.30;10.65;;;;;;;16.43;69.23;96850.10;1818167;79;21108;-85
2021/04/30 08:36:26;;;;;;;13.62;9.55;;;;;;;16.63;69.27;96856.75;1813119;79;21177;-89
2021/04/30 08:38:53;;;;;;;15.10;9.58;;;;;;;16.81;69.08;96856.58;1819724;79;21549;-85
2021/04/30 08:41:26;;;;;;;9.25;6.75;;;;;;;16.82;68.35;96850.27;1751194;81;21143;-86
2021/04/30 08:43:53;;;;;;;10.93;8.35;;;;;;;16.88;68.24;96845.25;1820373;79;21159;-84
2021/04/30 08:46:21;;;;;;;15.78;10.58;;;;;;;17.05;67.81;96844.24;1820476;78;21135;-85
2021/04/30 08:48:48;;;;;;;11.22;7.55;;;;;;;17.52;68.41;96840.42;1820204;79;21569;-83
2021/04/30 08:51:16;;;;;;;11.97;7.30;;;;;;;17.93;66.49;96826.37;1799900;78;21180;-83
2021/04/30 08:53:44;;;;;;;9.95;6.20;;;;;;;18.35;66.43;96826.94;1816851;79;21130;-81
2021/04/30 08:56:11;;;;;;;10.70;7.10;;;;;;;18.60;65.06;96820.08;1820064;79;21131;-82
2021/04/30 08:58:38;;;;;;;6.70;4.50;;;;;;;18.68;64.41;96832.00;1816019;79;21134;-83
2021/04/30 09:01:08;;;;;;;10.35;5.17;;;;;;;18.74;62.73;96834.46;1820166;79;21554;-84
2021/04/30 09:03:36;;;;;;;9.88;5.70;;;;;;;18.41;62.02;96831.58;1820051;78;21225;-84
2021/04/30 09:06:06;;;;;;;9.38;4.78;;;;;;;18.29;63.58;96828.15;1769773;81;21273;-86
2021/04/30 09:08:48;;;;;;;8.33;4.95;;;;;;;18.42;62.88;96833.73;1726100;82;21147;-82
2021/04/30 09:11:36;;;;;;;10.25;5.55;;;;;;;18.37;62.91;96830.26;1743384;82;21108;-83
2021/04/30 09:14:35;;;;;;;5.35;4.08;;;;;;;18.38;62.17;96835.08;1755536;82;21144;-83
2021/04/30 09:17:15;;;;;;;4.62;3.15;;;;;;;18.58;62.53;96825.57;1809801;79;21266;-82
2021/04/30 09:19:54;;;;;;;6.12;5.25;;;;;;;18.51;61.91;96831.31;1809686;79;21113;-88
2021/04/30 09:22:31;;;;;;;6.15;4.25;;;;;;;18.20;62.66;96832.73;1720967;82;21569;-85
2021/04/30 09:25:12;;;;;;;11.15;5.85;;;;;;;18.08;62.98;96838.47;1808921;79;21297;-83
2021/04/30 09:27:44;;;;;;;8.80;5.25;;;;;;;17.76;63.31;96833.66;1809813;79;21161;-84
2021/04/30 09:30:25;;;;;;;12.75;5.42;;;;;;;17.58;64.29;96838.41;1748020;81;21149;-86
2021/04/30 09:33:15;;;;;;;9.88;6.65;;;;;;;17.44;64.46;96843.45;1744156;82;21641;-80
2021/04/30 09:35:57;;;;;;;11.22;8.40;;;;;;;17.06;65.17;96831.27;1753497;81;21139;-82
2021/04/30 09:38:28;;;;;;;13.25;8.68;;;;;;;16.85;65.90;96841.11;1742322;81;21144;-82
2021/04/30 09:41:09;;;;;;;11.45;7.12;;;;;;;16.61;66.74;96845.95;1734892;83;21174;-80
2021/04/30 09:43:50;;;;;;;12.35;7.45;;;;;;;16.48;67.44;96845.13;1774159;81;21164;-79
2021/04/30 09:46:33;;;;;;;11.73;7.10;;;;;;;16.26;68.51;96846.63;1778573;80;21590;-80
2021/04/30 09:49:07;;;;;;;7.95;5.33;;;;;;;16.02;69.93;96843.78;1778681;80;21554;-81
2021/04/30 09:51:51;;;;;;;8.83;6.08;;;;;;;15.82;70.94;96839.23;1778730;80;21213;-79
2021/04/30 09:54:25;;;;;;;8.53;5.10;;;;;;;15.72;71.12;96835.88;1778885;80;21435;-80
2021/04/30 09:57:09;;;;;;;7.30;4.90;;;;;;;15.64;71.97;96844.66;1780517;80;21170;-80
2021/04/30 09:59:40;;;;;;;15.72;6.47;;;;;;;15.56;72.20;96844.12;1781177;80;21127;-81
2021/04/30 10:02:17;;;;;;;7.20;4.37;;;;;;;15.44;72.55;96842.77;1778436;80;21160;-80
2021/04/30 10:04:48;;;;;;;10.05;6.12;;;;;;;15.50;72.61;96840.78;1778885;80;21580;-82
2021/04/30 10:07:31;;;;;;;7.47;4.53;;;;;;;15.66;72.53;96844.00;1778856;80;21183;-79
2021/04/30 10:10:16;;;;;;;9.28;5.30;;;;;;;15.86;72.27;96855.71;1778133;81;21639;-80
2021/04/30 10:12:47;;;;;;;9.28;5.87;;;;;;;16.00;71.82;96848.42;1778472;81;21155;-80
2021/04/30 10:15:20;;;;;;;7.42;4.05;;;;;;;16.28;72.03;96843.31;1778655;81;21141;-81
2021/04/30 10:17:54;;;;;;;7.72;4.00;;;;;;;16.59;71.74;96843.47;1778579;80;21180;-81
2021/04/30 10:20:22;;;;;;;6.22;4.28;;;;;;;16.71;70.09;96845.28;1778422;80;21176;-78
2021/04/30 10:22:51;;;;;;;9.90;5.80;;;;;;;16.75;70.14;96839.94;1778465;81;21176;-79
2021/04/30 10:25:20;;;;;;;6.03;4.40;;;;;;;16.88;69.98;96829.28;1765906;81;21177;-79
2021/04/30 10:27:52;;;;;;;9.63;4.55;;;;;;;16.98;69.05;96829.95;1755206;81;21643;-80
2021/04/30 10:30:46;;;;;;;6.72;4.40;;;;;;;16.93;69.21;96827.80;1743393;81;21696;-78
2021/04/30 10:33:33;;;;;;;5.10;3.77;;;;;;;17.05;68.98;96826.94;1734307;82;21609;-78
2021/04/30 10:36:29;;;;;;;7.85;5.65;;;;;;;17.22;69.14;96841.04;1717981;83;21187;-79
2021/04/30 10:38:54;;;;;;;8.80;5.62;;;;;;;17.20;67.95;96837.71;1734388;82;21649;-80
2021/04/30 10:41:34;;;;;;;8.98;5.62;;;;;;;17.12;68.65;96828.42;1705211;84;21205;-80
2021/04/30 10:44:22;;;;;;;12.33;5.12;;;;;;;17.15;68.90;96820.92;1726390;82;21115;-81
2021/04/30 10:46:53;;;;;;;5.90;4.10;;;;;;;17.34;68.80;96816.19;1769885;80;21114;-79
2021/04/30 10:49:22;;;;;;;10.25;4.87;;;;;;;17.56;68.09;96815.91;1714414;82;21585;-80
2021/04/30 10:52:17;;;;;;;6.12;4.75;;;;;;;17.43;67.34;96820.99;1760989;81;21681;-80
2021/04/30 10:55:07;;;;;;;8.15;5.42;;;;;;;17.40;66.92;96814.16;1745113;81;21153;-80
2021/04/30 10:57:51;;;;;;;7.10;5.28;;;;;;;17.44;67.12;96809.34;1734673;82;21578;-78
2021/04/30 11:00:25;;;;;;;9.23;4.83;;;;;;;17.35;67.11;96801.87;1746473;81;21147;-80
2021/04/30 11:03:14;;;;;;;9.30;4.45;;;;;;;17.42;66.89;96805.49;1741212;80;21648;-79
2021/04/30 11:05:59;;;;;;;5.78;4.35;;;;;;;17.62;66.80;96795.73;1716768;83;21296;-80
2021/04/30 11:08:49;;;;;;;6.67;3.62;;;;;;;17.79;66.27;96783.97;1748900;81;21158;-79
2021/04/30 11:11:32;;;;;;;9.45;5.10;;;;;;;17.89;65.96;96792.23;1673324;81;21609;-78
2021/04/30 11:14:28;;;;;;;7.92;4.42;;;;;;;17.95;65.30;96794.22;1753584;81;21135;-80
2021/04/30 11:16:59;;;;;;;6.42;4.12;;;;;;;18.13;65.25;96791.27;1764981;81;21581;-79
2021/04/30 11:19:30;;;;;;;10.15;5.08;;;;;;;18.16;65.62;96789.59;1750843;81;21197;-78
2021/04/30 11:22:13;;;;;;;7.58;5.22;;;;;;;18.31;65.24;96791.45;1744730;81;21241;-80
2021/04/30 11:24:51;;;;;;;7.53;5.10;;;;;;;18.40;64.54;96784.55;1754982;81;21484;-80
2021/04/30 11:27:24;;;;;;;6.78;5.05;;;;;;;18.34;64.42;96783.11;1764581;81;21178;-79
2021/04/30 11:30:18;;;;;;;7.00;6.00;;;;;;;18.36;64.44;96781.09;1663436;86;21254;-78
2021/04/30 11:32:52;;;;;;;5.03;4.47;;;;;;;18.46;64.41;96778.16;1669824;86;21175;-80
2021/04/30 11:35:30;;;;;;;;;;;;;;;18.71;64.55;96779.57;1825590;77;22624;-79
2021/04/30 11:37:58;;;;;;;15.40;7.10;;;;;;;18.76;63.28;96772.86;1797463;78;20186;-80
2021/04/30 11:40:27;;;;;;;7.80;6.85;;;;;;;18.81;63.38;96773.98;1799862;78;21149;-79
2021/04/30 11:43:03;;;;;;;7.58;5.90;;;;;;;18.77;62.41;96774.53;1797372;78;21583;-82
2021/04/30 11:45:31;;;;;;;8.48;6.30;;;;;;;18.90;63.31;96757.34;1797182;78;21126;-79
2021/04/30 11:47:58;;;;;;;6.55;5.55;;;;;;;18.96;62.15;96757.15;1794877;80;21184;-80